Time;durP1;ratioP1;P1;durP2;ratioP2;P2;SDS_P1;SDS_P2;PMS_P1;PMS_P2;Temp;Humidity;BMP_temperature;BMP_pressure;BME280_temperature;BME280_humidity;BME280_pressure;Samples;Min_cycle;Max_cycle;Signal;HPM_P1;HPM_P2
2024/03/06 00:01:08;;;;;;;14.40;10.75;;;;;;;7.14;100.00;101642.44;5112522;28;20190;-69
2024/03/06 00:03:56;;;;;;;15.55;10.52;;;;;;;7.14;100.00;101647.03;5112270;28;20503;-68
2024/03/06 00:06:44;;;;;;;17.80;11.70;;;;;;;7.15;100.00;101641.41;5080656;28;20094;-68
2024/03/06 00:09:32;;;;;;;16.00;11.23;;;;;;;7.15;100.00;101654.13;5096247;27;20048;-68
2024/03/06 00:12:20;;;;;;;16.58;10.70;;;;;;;7.16;100.00;101662.00;5096620;28;20488;-68
2024/03/06 00:15:08;;;;;;;14.50;10.70;;;;;;;7.16;100.00;101663.91;5095324;27;20047;-69
2024/03/06 00:17:56;;;;;;;17.52;11.60;;;;;;;7.15;100.00;101660.38;5077852;28;20051;-69
2024/03/06 00:20:44;;;;;;;14.82;11.52;;;;;;;7.14;100.00;101664.13;5106294;27;20043;-68
2024/03/06 00:23:33;;;;;;;15.68;10.90;;;;;;;7.15;100.00;101660.38;5081990;28;20044;-69
2024/03/06 00:26:21;;;;;;;15.52;11.07;;;;;;;7.14;100.00;101669.53;5065883;28;20438;-69
2024/03/06 00:29:10;;;;;;;16.40;11.90;;;;;;;7.14;100.00;101674.97;5091773;28;20051;-68
2024/03/06 00:31:58;;;;;;;16.88;12.00;;;;;;;7.10;100.00;101662.94;5103606;28;20048;-68
2024/03/06 00:34:46;;;;;;;15.63;11.90;;;;;;;7.09;100.00;101666.69;5075681;28;20052;-67
2024/03/06 00:37:34;;;;;;;19.52;11.15;;;;;;;7.07;100.00;101668.81;5107366;28;20055;-68
2024/03/06 00:40:23;;;;;;;17.05;11.68;;;;;;;7.08;100.00;101669.63;5118109;27;20118;-68
2024/03/06 00:43:11;;;;;;;15.70;11.20;;;;;;;7.05;100.00;101676.31;5123869;27;20498;-67
2024/03/06 00:45:59;;;;;;;15.70;11.02;;;;;;;7.04;100.00;101672.75;5097403;28;20105;-68
2024/03/06 00:48:47;;;;;;;18.08;11.85;;;;;;;7.04;100.00;101675.47;5096571;28;20130;-69
2024/03/06 00:51:36;;;;;;;17.08;11.25;;;;;;;7.03;100.00;101673.00;5111180;28;20142;-68
2024/03/06 00:54:35;;;;;;;16.85;11.93;;;;;;;7.03;100.00;101678.44;5087141;28;20079;-68
2024/03/06 00:57:24;;;;;;;15.57;10.98;;;;;;;7.00;100.00;101673.47;5095621;28;20040;-68
2024/03/06 01:00:12;;;;;;;17.40;11.27;;;;;;;6.96;100.00;101686.59;5088846;27;20056;-68
2024/03/06 01:03:00;;;;;;;18.02;12.70;;;;;;;6.96;100.00;101691.22;5130048;27;20487;-68
2024/03/06 01:05:48;;;;;;;16.77;12.10;;;;;;;6.99;100.00;101698.88;5095683;28;20466;-68
2024/03/06 01:08:37;;;;;;;17.90;12.82;;;;;;;7.00;100.00;101695.13;5067366;28;20043;-68
2024/03/06 01:11:26;;;;;;;17.83;13.00;;;;;;;6.97;100.00;101700.97;5112085;28;20197;-68
2024/03/06 01:14:16;;;;;;;18.02;13.13;;;;;;;6.94;100.00;101696.84;5047113;28;20055;-68
2024/03/06 01:17:05;;;;;;;18.10;13.40;;;;;;;6.93;100.00;101699.78;5108652;28;20177;-68
2024/03/06 01:19:53;;;;;;;21.23;13.80;;;;;;;6.89;100.00;101703.97;5077613;28;20055;-68
2024/03/06 01:22:41;;;;;;;19.88;13.10;;;;;;;6.80;100.00;101700.72;5075133;28;20059;-68
2024/03/06 01:25:29;;;;;;;22.35;13.35;;;;;;;6.71;100.00;101708.28;5093787;28;20423;-68
2024/03/06 01:28:18;;;;;;;18.63;12.43;;;;;;;6.65;100.00;101711.88;5091604;28;20052;-68
2024/03/06 01:31:06;;;;;;;17.50;12.52;;;;;;;6.64;100.00;101707.53;5061472;28;20165;-69
2024/03/06 01:33:54;;;;;;;16.80;12.30;;;;;;;6.64;100.00;101715.66;5086472;27;20140;-68
2024/03/06 01:36:42;;;;;;;20.00;13.32;;;;;;;6.61;100.00;101718.78;5085316;28;20573;-68
2024/03/06 01:39:30;;;;;;;19.40;13.10;;;;;;;6.61;100.00;101707.94;5095043;28;20052;-68
2024/03/06 01:42:18;;;;;;;16.83;12.30;;;;;;;6.62;100.00;101715.03;5096532;28;20533;-68
2024/03/06 01:45:07;;;;;;;19.05;13.23;;;;;;;6.62;100.00;101720.44;5098353;28;20119;-67
2024/03/06 01:47:55;;;;;;;16.73;13.00;;;;;;;6.60;100.00;101717.13;5096100;28;20530;-68
2024/03/06 01:50:43;;;;;;;18.30;12.05;;;;;;;6.59;100.00;101727.13;5109965;28;20048;-68
2024/03/06 01:53:32;;;;;;;18.75;12.48;;;;;;;6.58;100.00;101724.63;5095955;28;20127;-69
2024/03/06 01:56:20;;;;;;;18.92;12.80;;;;;;;6.58;100.00;101730.88;5071121;28;20040;-69
2024/03/06 01:59:09;;;;;;;17.70;12.63;;;;;;;6.60;100.00;101727.94;5061969;28;20056;-69
2024/03/06 02:02:03;;;;;;;17.38;12.82;;;;;;;6.61;100.00;101730.47;5106866;28;20047;-68
2024/03/06 02:04:54;;;;;;;19.75;12.27;;;;;;;6.60;100.00;101727.94;5090439;28;20048;-69
2024/03/06 02:07:42;;;;;;;17.52;13.40;;;;;;;6.58;100.00;101730.03;5101709;28;20049;-68
2024/03/06 02:10:31;;;;;;;17.95;12.93;;;;;;;6.51;100.00;101735.50;5128350;27;20039;-68
2024/03/06 02:13:19;;;;;;;18.63;13.63;;;;;;;6.39;100.00;101743.47;5109248;28;20134;-69
2024/03/06 02:16:07;;;;;;;18.88;13.40;;;;;;;6.31;100.00;101738.34;5082795;28;20050;-68
2024/03/06 02:18:56;;;;;;;18.80;12.90;;;;;;;6.28;100.00;101746.91;5081372;28;20040;-67
2024/03/06 02:21:45;;;;;;;16.63;12.70;;;;;;;6.33;100.00;101747.06;5093744;28;20040;-68
2024/03/06 02:24:34;;;;;;;15.77;12.40;;;;;;;6.44;100.00;101739.31;5094317;28;20530;-68
2024/03/06 02:27:22;;;;;;;18.25;13.48;;;;;;;6.52;100.00;101739.06;5093126;28;20134;-68
2024/03/06 02:30:10;;;;;;;19.45;13.20;;;;;;;6.50;100.00;101744.69;5116186;28;20051;-68
2024/03/06 02:32:58;;;;;;;19.48;13.00;;;;;;;6.46;100.00;101738.03;5112130;28;20051;-69
2024/03/06 02:35:47;;;;;;;16.92;12.48;;;;;;;6.44;100.00;101744.72;5127064;28;20034;-67
2024/03/06 02:38:36;;;;;;;18.00;12.63;;;;;;;6.43;100.00;101748.47;5132909;28;20050;-67
2024/03/06 02:41:24;;;;;;;17.38;12.10;;;;;;;6.44;100.00;101750.13;5078474;28;20130;-68
2024/03/06 02:44:12;;;;;;;16.52;12.35;;;;;;;6.48;100.00;101752.19;5091172;28;20059;-66
2024/03/06 02:47:00;;;;;;;16.02;12.10;;;;;;;6.52;100.00;101749.88;5103042;28;20036;-66
2024/03/06 02:49:48;;;;;;;19.90;12.70;;;;;;;6.51;100.00;101751.75;5095215;28;20044;-68
2024/03/06 02:52:36;;;;;;;17.23;12.07;;;;;;;6.47;100.00;101750.53;5118667;28;20040;-68
2024/03/06 02:55:24;;;;;;;16.73;12.85;;;;;;;6.46;100.00;101748.03;5110921;28;20070;-68
2024/03/06 02:58:12;;;;;;;17.63;12.73;;;;;;;6.44;100.00;101755.53;5099935;27;20044;-69
2024/03/06 03:01:00;;;;;;;17.17;12.48;;;;;;;6.46;100.00;101756.16;5114628;28;20052;-69
2024/03/06 03:03:48;;;;;;;20.35;13.85;;;;;;;6.46;100.00;101742.63;5114035;28;20172;-69
2024/03/06 03:06:36;;;;;;;15.80;12.48;;;;;;;6.46;100.00;101748.88;5095087;28;20441;-69
2024/03/06 03:09:24;;;;;;;15.18;12.18;;;;;;;6.45;100.00;101747.22;5116861;27;20501;-67
2024/03/06 03:12:13;;;;;;;20.17;13.27;;;;;;;6.48;100.00;101745.94;5113965;27;20040;-68
2024/03/06 03:15:01;;;;;;;17.67;13.23;;;;;;;6.49;100.00;101740.28;5104406;28;20044;-68
2024/03/06 03:17:49;;;;;;;18.25;12.30;;;;;;;6.46;100.00;101743.44;5096865;28;20055;-68
2024/03/06 03:20:37;;;;;;;17.23;12.60;;;;;;;6.45;100.00;101757.22;5112005;28;20135;-68
2024/03/06 03:23:25;;;;;;;17.95;12.68;;;;;;;6.39;100.00;101748.91;5102170;28;20122;-68
2024/03/06 03:26:13;;;;;;;20.75;13.10;;;;;;;6.36;100.00;101759.34;5099329;28;20055;-68
2024/03/06 03:29:01;;;;;;;19.65;13.73;;;;;;;6.32;100.00;101756.22;5113764;28;20518;-69
2024/03/06 03:31:49;;;;;;;20.15;14.48;;;;;;;6.32;100.00;101753.50;5094053;28;20051;-68
2024/03/06 03:34:37;;;;;;;18.83;13.70;;;;;;;6.33;100.00;101752.50;5117446;27;20043;-68
2024/03/06 03:37:25;;;;;;;18.90;13.13;;;;;;;6.33;100.00;101760.59;5085223;28;20574;-68
2024/03/06 03:40:13;;;;;;;19.00;13.80;;;;;;;6.34;100.00;101762.25;5103427;27;20047;-68
2024/03/06 03:43:06;;;;;;;21.10;14.95;;;;;;;6.37;100.00;101764.56;5119391;27;20063;-68
2024/03/06 03:45:54;;;;;;;20.52;14.65;;;;;;;6.34;100.00;101762.25;5099120;28;20511;-68
2024/03/06 03:48:43;;;;;;;16.80;13.60;;;;;;;6.31;100.00;101761.88;5084426;28;20047;-69
2024/03/06 03:51:31;;;;;;;20.42;14.30;;;;;;;6.30;100.00;101769.16;5113589;27;20099;-68
2024/03/06 03:54:18;;;;;;;18.88;14.40;;;;;;;6.34;100.00;101766.84;5112143;27;20074;-68
2024/03/06 03:57:08;;;;;;;20.15;14.40;;;;;;;6.36;100.00;101770.16;5079252;28;20289;-67
2024/03/06 03:59:56;;;;;;;21.48;15.15;;;;;;;6.34;100.00;101766.84;5084707;28;20426;-68
2024/03/06 04:02:44;;;;;;;20.77;15.35;;;;;;;6.30;100.00;101777.28;5109810;28;20617;-68
2024/03/06 04:05:32;;;;;;;23.67;15.93;;;;;;;6.29;100.00;101778.31;5099810;27;20039;-67
2024/03/06 04:08:20;;;;;;;23.45;16.10;;;;;;;6.26;100.00;101778.75;5112634;28;20121;-68
2024/03/06 04:11:08;;;;;;;21.23;15.98;;;;;;;6.26;100.00;101776.06;5113928;28;20059;-69
2024/03/06 04:13:56;;;;;;;23.58;16.45;;;;;;;6.23;100.00;101779.19;5091774;28;20044;-69
2024/03/06 04:16:45;;;;;;;20.45;15.93;;;;;;;6.20;100.00;101776.91;5119312;27;20452;-68
2024/03/06 04:19:33;;;;;;;20.50;14.85;;;;;;;6.20;100.00;101779.59;5075706;28;20048;-68
2024/03/06 04:22:21;;;;;;;23.63;16.20;;;;;;;6.23;100.00;101776.50;5107417;28;20051;-67
2024/03/06 04:25:09;;;;;;;20.65;15.02;;;;;;;6.27;100.00;101777.69;5070025;28;20051;-68
2024/03/06 04:27:57;;;;;;;22.98;16.25;;;;;;;6.28;100.00;101779.38;5112560;28;20528;-69
2024/03/06 04:30:45;;;;;;;23.58;15.85;;;;;;;6.32;100.00;101779.75;5112928;28;20132;-68
2024/03/06 04:33:33;;;;;;;22.42;15.07;;;;;;;6.35;100.00;101777.47;5094673;28;20200;-68
2024/03/06 04:36:21;;;;;;;19.65;15.05;;;;;;;6.38;100.00;101782.44;5082688;27;20133;-68
2024/03/06 04:39:10;;;;;;;23.00;15.25;;;;;;;6.37;100.00;101783.50;5111259;28;20236;-68
2024/03/06 04:41:57;;;;;;;20.52;15.63;;;;;;;6.34;100.00;101781.19;5096307;28;20055;-68
2024/03/06 04:44:46;;;;;;;22.38;15.75;;;;;;;6.30;100.00;101788.13;5121543;27;20051;-67
2024/03/06 04:47:34;;;;;;;21.40;15.80;;;;;;;6.28;100.00;101789.38;5082740;27;20119;-68
2024/03/06 04:50:22;;;;;;;21.05;14.95;;;;;;;6.30;100.00;101790.81;5097277;28;20047;-68
2024/03/06 04:53:10;;;;;;;19.60;14.35;;;;;;;6.34;100.00;101789.31;5074586;28;20078;-68
2024/03/06 04:55:58;;;;;;;19.80;15.05;;;;;;;6.38;100.00;101801.38;5082972;28;20044;-67
2024/03/06 04:58:47;;;;;;;23.08;15.40;;;;;;;6.30;100.00;101808.91;5082230;28;20073;-68
2024/03/06 05:01:35;;;;;;;20.27;15.00;;;;;;;6.07;100.00;101814.84;5075762;28;20484;-68
2024/03/06 05:04:23;;;;;;;23.85;15.13;;;;;;;5.97;100.00;101820.72;5076802;28;20067;-68
2024/03/06 05:07:29;;;;;;;22.20;15.02;;;;;;;5.93;100.00;101820.25;5107141;28;20112;-68
2024/03/06 05:10:35;;;;;;;19.20;13.95;;;;;;;5.98;100.00;101828.59;5105783;28;20075;-68
2024/03/06 05:13:40;;;;;;;19.33;14.18;;;;;;;6.05;100.00;101839.41;5097356;28;20058;-68
2024/03/06 05:16:45;;;;;;;19.90;14.20;;;;;;;5.99;100.00;101842.97;5092275;28;20050;-68
2024/03/06 05:19:52;;;;;;;18.90;13.25;;;;;;;5.85;100.00;101850.25;5084680;27;20073;-67
2024/03/06 05:22:57;;;;;;;17.95;12.77;;;;;;;5.74;100.00;101859.00;5075310;28;20454;-68
2024/03/06 05:26:03;;;;;;;;;;;;;;;5.70;100.00;101864.00;5095796;28;20050;-68
2024/03/06 05:29:08;;;;;;;;;;;;;;;5.70;100.00;101864.00;5112637;28;19938;-70
2024/03/06 05:32:13;;;;;;;19.30;12.95;;;;;;;5.56;100.00;101865.06;5096642;27;19916;-68
2024/03/06 05:35:19;;;;;;;19.13;12.57;;;;;;;5.37;100.00;101861.31;5064554;28;20055;-68
2024/03/06 05:38:24;;;;;;;21.77;12.82;;;;;;;5.28;100.00;101871.47;5126172;27;20047;-67
2024/03/06 05:41:30;;;;;;;16.70;11.65;;;;;;;5.13;100.00;101866.28;5099139;27;20120;-67
2024/03/06 05:44:36;;;;;;;19.35;11.95;;;;;;;5.05;100.00;101871.03;5098585;28;20044;-68
2024/03/06 05:47:42;;;;;;;16.70;11.07;;;;;;;4.97;100.00;101880.16;5089448;28;20040;-68
2024/03/06 05:50:47;;;;;;;15.63;10.98;;;;;;;5.01;100.00;101886.00;5093992;28;20043;-68
2024/03/06 05:53:52;;;;;;;17.67;10.30;;;;;;;5.05;100.00;101893.50;5110737;28;20067;-68
2024/03/06 05:56:57;;;;;;;14.48;10.60;;;;;;;5.03;100.00;101890.16;5112526;28;20048;-69
2024/03/06 06:00:04;;;;;;;15.63;10.43;;;;;;;4.98;100.00;101903.47;5106554;27;20040;-69
2024/03/06 06:02:58;;;;;;;15.32;10.20;;;;;;;4.98;100.00;101903.47;5088693;28;20504;-69
2024/03/06 06:05:46;;;;;;;14.52;10.32;;;;;;;4.96;100.00;101905.53;4385304;28;10000282;-69
2024/03/06 06:08:35;;;;;;;15.07;10.85;;;;;;;4.91;100.00;101908.00;5075772;28;20052;-70
2024/03/06 06:11:23;;;;;;;13.95;10.05;;;;;;;4.91;100.00;101913.41;5106918;28;20511;-70
2024/03/06 06:14:12;;;;;;;21.50;10.30;;;;;;;4.92;100.00;101920.47;5091249;28;20398;-69
2024/03/06 06:17:00;;;;;;;14.27;10.00;;;;;;;4.89;100.00;101918.19;5092018;28;20503;-70
2024/03/06 06:19:48;;;;;;;14.05;10.98;;;;;;;4.95;100.00;101930.84;5067571;28;20452;-70
2024/03/06 06:22:39;;;;;;;12.05;8.60;;;;;;;5.04;100.00;101924.22;5099255;28;20355;-69
2024/03/06 06:25:26;;;;;;;13.55;9.80;;;;;;;4.98;100.00;101935.88;5073790;28;20044;-69
2024/03/06 06:28:14;;;;;;;12.45;9.13;;;;;;;4.90;100.00;101933.34;5072971;28;20052;-69
2024/03/06 06:31:04;;;;;;;14.50;8.43;;;;;;;4.90;100.00;101936.84;5087760;28;20405;-70
2024/03/06 06:33:52;;;;;;;13.23;8.88;;;;;;;4.86;100.00;101937.50;5111630;28;20082;-70
2024/03/06 06:36:46;;;;;;;12.27;8.15;;;;;;;4.86;100.00;101937.50;5090937;28;20479;-70
2024/03/06 06:39:34;;;;;;;13.10;8.63;;;;;;;4.72;100.00;101947.41;5079294;28;20530;-70
2024/03/06 06:42:22;;;;;;;12.90;8.18;;;;;;;4.58;100.00;101957.31;5112127;27;20455;-69
2024/03/06 06:45:10;;;;;;;17.65;8.30;;;;;;;4.58;100.00;101960.00;5096900;27;20079;-69
2024/03/06 06:47:58;;;;;;;14.98;8.25;;;;;;;4.54;100.00;101960.59;5102262;27;20047;-69
2024/03/06 06:50:47;;;;;;;16.42;8.35;;;;;;;4.45;100.00;101968.03;5092338;27;20044;-69
2024/03/06 06:53:37;;;;;;;10.98;6.93;;;;;;;4.41;100.00;101966.75;5072158;28;20040;-69
2024/03/06 06:56:25;;;;;;;11.98;6.70;;;;;;;4.48;100.00;101970.34;5095171;27;20430;-70
2024/03/06 06:59:13;;;;;;;12.13;7.20;;;;;;;4.49;100.00;101977.38;5085873;27;20046;-69
2024/03/06 07:02:03;;;;;;;10.00;6.93;;;;;;;4.48;100.00;101978.44;5118382;27;20040;-69
2024/03/06 07:04:52;;;;;;;12.52;6.70;;;;;;;4.50;100.00;101976.38;5095783;28;20052;-70
2024/03/06 07:07:40;;;;;;;11.25;6.72;;;;;;;4.54;100.00;101985.72;5082653;28;20068;-69
2024/03/06 07:10:28;;;;;;;10.38;6.55;;;;;;;4.57;100.00;101987.19;5095268;28;20048;-69
2024/03/06 07:13:17;;;;;;;10.10;6.68;;;;;;;4.67;100.00;101987.66;5118579;28;20072;-69
2024/03/06 07:16:06;;;;;;;10.52;6.80;;;;;;;4.69;100.00;101991.00;5115915;28;20043;-69
2024/03/06 07:18:54;;;;;;;11.05;7.10;;;;;;;4.73;100.00;101994.13;5096453;28;20048;-69
2024/03/06 07:21:42;;;;;;;11.90;7.20;;;;;;;4.63;100.00;102003.41;5091477;28;20627;-69
2024/03/06 07:24:30;;;;;;;10.88;7.22;;;;;;;4.68;100.00;102008.22;5096235;28;20116;-69
2024/03/06 07:27:18;;;;;;;10.70;6.85;;;;;;;4.74;100.00;102009.28;5100948;28;20050;-69
2024/03/06 07:30:07;;;;;;;11.07;7.20;;;;;;;4.78;100.00;102011.38;5114725;28;20071;-69
2024/03/06 07:32:57;;;;;;;10.15;6.85;;;;;;;4.73;100.00;102018.44;5113150;28;20070;-71
2024/03/06 07:35:46;;;;;;;12.63;6.75;;;;;;;4.73;100.00;102018.44;5054033;28;20047;-69
2024/03/06 07:38:34;;;;;;;11.35;6.47;;;;;;;4.70;100.00;102027.75;5079209;28;20052;-69
2024/03/06 07:41:23;;;;;;;11.27;7.03;;;;;;;4.74;100.00;102025.47;5102132;27;20466;-69
2024/03/06 07:44:11;;;;;;;12.15;7.13;;;;;;;4.76;100.00;102020.72;5078342;27;20051;-69
2024/03/06 07:46:59;;;;;;;14.35;7.45;;;;;;;4.72;100.00;102030.28;5067342;28;20397;-70
2024/03/06 07:49:50;;;;;;;11.65;7.25;;;;;;;4.68;100.00;102027.94;5094567;28;20094;-70
2024/03/06 07:52:39;;;;;;;16.63;8.00;;;;;;;4.65;100.00;102038.31;5115097;27;20036;-70
2024/03/06 07:55:27;;;;;;;13.05;8.35;;;;;;;4.64;100.00;102042.91;5082126;28;20043;-69
2024/03/06 07:58:16;;;;;;;12.90;8.00;;;;;;;4.68;100.00;102037.91;5082462;28;20067;-70
2024/03/06 08:01:05;;;;;;;15.68;8.02;;;;;;;4.73;100.00;102050.81;5107727;27;20043;-70
2024/03/06 08:03:53;;;;;;;18.52;7.43;;;;;;;4.78;100.00;102049.19;5112847;28;20056;-70
2024/03/06 08:06:41;;;;;;;12.93;7.85;;;;;;;4.87;100.00;102041.75;5099130;28;20047;-70
2024/03/06 08:09:29;;;;;;;12.52;8.02;;;;;;;4.83;100.00;102051.28;5071590;28;20132;-68
2024/03/06 08:12:17;;;;;;;20.70;8.73;;;;;;;4.76;100.00;102058.50;5084410;28;20039;-70
2024/03/06 08:15:09;;;;;;;14.45;8.02;;;;;;;4.74;100.00;102055.19;5111730;28;20475;-70
2024/03/06 08:17:57;;;;;;;10.68;7.30;;;;;;;4.81;100.00;102059.59;5098853;28;20131;-69
2024/03/06 08:20:45;;;;;;;11.98;7.85;;;;;;;4.94;100.00;102068.81;5097472;28;20078;-70
2024/03/06 08:23:33;;;;;;;13.60;8.32;;;;;;;5.05;100.00;102071.78;5099479;28;20136;-68
2024/03/06 08:26:23;;;;;;;13.73;7.97;;;;;;;5.13;100.00;102074.31;5096130;28;20444;-70
2024/03/06 08:29:11;;;;;;;15.00;8.77;;;;;;;5.18;100.00;102070.16;5099701;28;20047;-70
2024/03/06 08:32:00;;;;;;;14.02;8.43;;;;;;;5.15;100.00;102081.34;5098866;28;20088;-70
2024/03/06 08:34:49;;;;;;;12.55;8.57;;;;;;;5.14;100.00;102085.94;5098813;28;20452;-70
2024/03/06 08:37:41;;;;;;;11.77;7.22;;;;;;;5.14;100.00;102083.22;5079212;28;20119;-70
2024/03/06 08:40:29;;;;;;;12.77;8.02;;;;;;;5.22;100.00;102087.63;5077003;28;20106;-69
2024/03/06 08:43:19;;;;;;;11.90;7.55;;;;;;;5.30;100.00;102085.59;5077135;28;20075;-70
2024/03/06 08:46:07;;;;;;;11.75;7.63;;;;;;;5.33;100.00;102096.00;5069535;28;20091;-70
2024/03/06 08:48:55;;;;;;;13.82;8.70;;;;;;;5.29;100.00;102102.00;5083121;28;20079;-71
2024/03/06 08:51:43;;;;;;;15.30;8.38;;;;;;;5.24;100.00;102096.38;5111935;28;20057;-70
2024/03/06 08:54:32;;;;;;;14.85;8.65;;;;;;;5.21;100.00;102099.47;5082819;28;20536;-70
2024/03/06 08:57:23;;;;;;;12.05;7.88;;;;;;;5.22;100.00;102099.28;5119827;27;20043;-70
2024/03/06 09:00:12;;;;;;;14.65;9.68;;;;;;;5.27;100.00;102113.03;5104231;27;20045;-70
2024/03/06 09:03:00;;;;;;;19.98;10.85;;;;;;;5.21;100.00;102111.13;5117649;27;20111;-70
2024/03/06 09:05:48;;;;;;;14.60;10.20;;;;;;;5.23;100.00;102110.94;5078372;28;20059;-69
2024/03/06 09:08:36;;;;;;;17.35;10.70;;;;;;;5.28;100.00;102109.28;5079495;28;20047;-70
2024/03/06 09:11:24;;;;;;;14.02;9.98;;;;;;;5.39;100.00;102116.00;5084068;28;20055;-71
2024/03/06 09:14:12;;;;;;;12.75;9.32;;;;;;;5.51;100.00;102118.94;5083851;28;20043;-70
2024/03/06 09:17:01;;;;;;;12.43;9.45;;;;;;;5.62;100.00;102120.22;5097489;28;20159;-70
2024/03/06 09:19:50;;;;;;;14.02;10.32;;;;;;;5.70;100.00;102130.84;5096648;28;20138;-70
2024/03/06 09:22:56;;;;;;;15.50;10.80;;;;;;;5.77;100.00;102129.00;5086321;28;20112;-70
2024/03/06 09:25:45;;;;;;;14.73;11.18;;;;;;;5.81;100.00;102135.66;5083332;28;20046;-70
2024/03/06 09:28:33;;;;;;;15.13;10.13;;;;;;;5.87;100.00;102134.88;5111457;28;20043;-71
2024/03/06 09:31:21;;;;;;;15.00;9.45;;;;;;;5.90;100.00;102131.75;5112559;28;20055;-70
2024/03/06 09:34:12;;;;;;;14.18;10.80;;;;;;;5.98;100.00;102136.16;5111700;28;20077;-72
2024/03/06 09:37:00;;;;;;;15.75;11.50;;;;;;;6.01;100.00;102143.03;5096346;28;20054;-71
2024/03/06 09:39:48;;;;;;;15.95;11.75;;;;;;;6.01;100.00;102137.63;5105602;28;20533;-70
2024/03/06 09:42:36;;;;;;;16.08;11.10;;;;;;;6.05;100.00;102141.59;5098095;28;20050;-70
2024/03/06 09:45:24;;;;;;;18.92;12.90;;;;;;;6.11;100.00;102146.16;5056363;28;20471;-71
2024/03/06 09:48:13;;;;;;;25.33;17.45;;;;;;;6.17;100.00;102146.19;5111769;28;20059;-71
2024/03/06 09:51:03;;;;;;;28.20;18.48;;;;;;;6.22;100.00;102156.41;5082425;28;20063;-71
2024/03/06 09:53:52;;;;;;;27.85;18.83;;;;;;;6.27;100.00;102155.78;5097044;28;20176;-70
2024/03/06 09:56:45;;;;;;;25.60;18.27;;;;;;;6.33;100.00;102160.38;5097603;28;20074;-70
2024/03/06 09:59:33;;;;;;;24.38;17.75;;;;;;;6.39;100.00;102165.78;5096875;28;20055;-70
2024/03/06 10:02:37;;;;;;;25.48;15.50;;;;;;;6.45;100.00;102174.13;5055220;28;20048;-69
2024/03/06 10:05:26;;;;;;;19.35;13.45;;;;;;;6.50;100.00;102172.47;5076200;28;20077;-69
2024/03/06 10:08:16;;;;;;;23.60;14.27;;;;;;;6.56;100.00;102165.38;5076449;28;20055;-70
2024/03/06 10:11:06;;;;;;;16.73;11.02;;;;;;;6.62;100.00;102175.38;5099902;28;20516;-71
2024/03/06 10:13:54;;;;;;;16.77;12.27;;;;;;;6.67;100.00;102170.19;5083011;28;20494;-70
2024/03/06 10:16:57;;;;;;;20.30;13.50;;;;;;;6.67;100.00;102172.06;5111485;28;20558;-70
2024/03/06 10:19:50;;;;;;;17.85;13.43;;;;;;;6.67;100.00;102172.88;5096343;28;20126;-70
2024/03/06 10:22:39;;;;;;;17.77;13.23;;;;;;;6.69;100.00;102170.81;5109946;28;20056;-70
2024/03/06 10:25:27;;;;;;;18.30;13.95;;;;;;;6.72;100.00;102174.97;5068645;28;20049;-70
2024/03/06 10:28:16;;;;;;;17.95;12.70;;;;;;;6.77;100.00;102170.56;5076705;28;20118;-70
2024/03/06 10:31:07;;;;;;;19.67;14.25;;;;;;;6.82;100.00;102168.06;5075876;28;20105;-70
2024/03/06 10:33:55;;;;;;;20.80;14.38;;;;;;;6.89;100.00;102169.94;5094058;28;20040;-70
2024/03/06 10:36:44;;;;;;;19.25;14.55;;;;;;;6.93;100.00;102172.03;5096725;28;20040;-69
2024/03/06 10:39:38;;;;;;;19.08;13.98;;;;;;;6.98;100.00;102174.13;5109602;28;20043;-71
2024/03/06 10:42:28;;;;;;;18.70;14.10;;;;;;;7.01;100.00;102179.94;5095130;28;20062;-70
2024/03/06 10:45:17;;;;;;;19.20;13.85;;;;;;;7.05;100.00;102172.22;5096845;28;20055;-71
2024/03/06 10:48:05;;;;;;;20.15;13.57;;;;;;;7.09;100.00;102169.91;5096338;28;20613;-70
2024/03/06 10:50:54;;;;;;;19.77;14.13;;;;;;;7.13;100.00;102163.84;5082502;28;20134;-71
2024/03/06 10:53:43;;;;;;;16.23;10.38;;;;;;;7.19;100.00;102173.00;5071923;28;20048;-70
2024/03/06 10:56:31;;;;;;;18.77;11.25;;;;;;;7.23;100.00;102168.84;5097828;28;20044;-70
2024/03/06 10:59:21;;;;;;;17.17;12.35;;;;;;;7.29;100.00;102167.16;5114531;28;20059;-70
2024/03/06 11:02:11;;;;;;;19.02;13.15;;;;;;;7.37;100.00;102172.34;5130583;28;20088;-71
2024/03/06 11:05:00;;;;;;;17.70;12.15;;;;;;;7.47;100.00;102170.03;5064634;28;20044;-70
2024/03/06 11:07:48;;;;;;;16.45;11.63;;;;;;;7.54;100.00;102168.13;5059924;28;20059;-70
2024/03/06 11:10:40;;;;;;;18.17;10.57;;;;;;;7.58;100.00;102182.09;5071929;28;20044;-70
2024/03/06 11:13:34;;;;;;;15.13;10.77;;;;;;;7.58;100.00;102180.22;5062872;28;20044;-70
2024/03/06 11:16:30;;;;;;;17.33;10.70;;;;;;;7.60;100.00;102185.41;5093744;28;20487;-70
2024/03/06 11:19:18;;;;;;;;;;;;;;;7.64;100.00;102181.22;5072630;28;20039;-70
2024/03/06 11:22:06;;;;;;;15.25;10.63;;;;;;;7.66;100.00;102182.66;5094213;28;20154;-69
2024/03/06 11:24:54;;;;;;;14.65;9.60;;;;;;;7.68;100.00;102186.00;5137585;27;20051;-70
2024/03/06 11:28:04;;;;;;;15.30;10.20;;;;;;;7.73;100.00;102181.81;5124593;27;20072;-69
2024/03/06 11:31:06;;;;;;;16.08;11.23;;;;;;;7.76;100.00;102181.38;5095404;27;20040;-71
2024/03/06 11:33:55;;;;;;;13.50;10.25;;;;;;;7.79;100.00;102189.09;5119567;27;20108;-70
2024/03/06 11:36:47;;;;;;;17.13;10.63;;;;;;;7.85;100.00;102191.78;5138399;27;20062;-70
2024/03/06 11:39:37;;;;;;;15.90;10.07;;;;;;;7.89;100.00;102184.06;5124788;27;20506;-70
2024/03/06 11:42:37;;;;;;;19.90;12.77;;;;;;;7.93;100.00;102187.97;5135680;27;20126;-70
2024/03/06 11:45:25;;;;;;;16.42;11.88;;;;;;;7.99;100.00;102192.53;5100993;27;20055;-70
2024/03/06 11:48:19;;;;;;;17.73;12.77;;;;;;;8.02;100.00;102192.09;5099853;28;20047;-70
2024/03/06 11:51:07;;;;;;;18.05;12.48;;;;;;;8.06;100.00;102195.22;5113820;28;20511;-69
2024/03/06 11:53:55;;;;;;;17.02;11.45;;;;;;;8.08;100.00;102191.25;5085605;28;20044;-70
2024/03/06 11:56:46;;;;;;;16.35;11.52;;;;;;;8.08;100.00;102191.25;5052843;28;20047;-70
2024/03/06 11:59:39;;;;;;;14.98;10.07;;;;;;;8.10;100.00;102196.44;5067388;28;20052;-69
2024/03/06 12:02:31;;;;;;;17.90;11.90;;;;;;;8.14;100.00;102205.00;5078573;28;20135;-71
2024/03/06 12:05:19;;;;;;;19.40;13.48;;;;;;;8.24;100.00;102202.63;5077732;28;20075;-71
2024/03/06 12:08:07;;;;;;;18.42;12.77;;;;;;;8.37;100.00;102205.28;5109884;28;20036;-71
2024/03/06 12:10:57;;;;;;;15.70;9.80;;;;;;;8.45;100.00;102196.88;5097924;28;20117;-70
2024/03/06 12:13:46;;;;;;;12.75;7.85;;;;;;;8.49;100.00;102199.97;5098798;28;20070;-70
2024/03/06 12:16:34;;;;;;;15.05;9.70;;;;;;;8.50;100.00;102210.63;5084624;28;20525;-70
2024/03/06 12:19:22;;;;;;;14.70;10.13;;;;;;;8.50;100.00;102190.78;5051056;28;20044;-71
2024/03/06 12:22:11;;;;;;;17.75;10.77;;;;;;;8.56;100.00;102205.38;5085828;28;20116;-70
2024/03/06 12:25:00;;;;;;;16.25;10.65;;;;;;;8.59;100.00;102194.91;5084590;28;20043;-70
2024/03/06 12:27:49;;;;;;;12.00;8.20;;;;;;;8.65;100.00;102201.34;5074876;27;20369;-70
2024/03/06 12:30:45;;;;;;;14.15;9.02;;;;;;;8.66;100.00;102189.41;5117314;27;20047;-69
2024/03/06 12:33:36;;;;;;;14.38;9.65;;;;;;;8.66;100.00;102200.25;5118464;27;20069;-71
2024/03/06 12:36:26;;;;;;;17.95;9.52;;;;;;;8.67;100.00;102196.50;5100182;27;20058;-69
2024/03/06 12:39:20;;;;;;;15.60;10.18;;;;;;;8.72;100.00;102197.50;5098771;28;20075;-70
2024/03/06 12:42:09;;;;;;;13.65;7.70;;;;;;;8.77;100.00;102196.84;5070143;28;20071;-70
2024/03/06 12:44:57;;;;;;;10.75;6.72;;;;;;;8.80;100.00;102198.28;5097538;28;20051;-69
2024/03/06 12:47:48;;;;;;;12.10;6.35;;;;;;;8.94;100.00;102197.94;5111329;28;20180;-70
2024/03/06 12:50:36;;;;;;;11.73;6.88;;;;;;;9.06;100.00;102195.31;5109768;28;20108;-70
2024/03/06 12:53:24;;;;;;;11.32;7.75;;;;;;;9.14;100.00;102188.78;5111319;28;20189;-70
2024/03/06 12:56:12;;;;;;;12.35;7.72;;;;;;;9.21;100.00;102194.13;5110240;28;20048;-70